sensor_id;sensor_type;location;lat;lon;timestamp;P1;durP1;ratioP1;P2;durP2;ratioP2
61960;SDS011;47923;42.506;24.192;2023-04-25T00:00:49;9.30;;;3.80;;
61960;SDS011;47923;42.506;24.192;2023-04-25T00:03:17;6.60;;;2.92;;
61960;SDS011;47923;42.506;24.192;2023-04-25T00:05:43;6.07;;;2.60;;
61960;SDS011;47923;42.506;24.192;2023-04-25T00:08:10;8.32;;;2.78;;
61960;SDS011;47923;42.506;24.192;2023-04-25T00:10:36;6.13;;;2.83;;
61960;SDS011;47923;42.506;24.192;2023-04-25T00:13:01;7.10;;;2.88;;
61960;SDS011;47923;42.506;24.192;2023-04-25T00:15:27;5.05;;;2.75;;
61960;SDS011;47923;42.506;24.192;2023-04-25T00:17:55;6.28;;;2.80;;
61960;SDS011;47923;42.506;24.192;2023-04-25T00:20:21;6.38;;;2.75;;
61960;SDS011;47923;42.506;24.192;2023-04-25T00:22:48;4.05;;;2.00;;
61960;SDS011;47923;42.506;24.192;2023-04-25T00:25:14;7.43;;;4.03;;
61960;SDS011;47923;42.506;24.192;2023-04-25T00:27:39;7.57;;;4.45;;
61960;SDS011;47923;42.506;24.192;2023-04-25T00:30:06;7.63;;;4.38;;
61960;SDS011;47923;42.506;24.192;2023-04-25T00:32:32;7.68;;;4.90;;
61960;SDS011;47923;42.506;24.192;2023-04-25T00:34:58;6.65;;;4.00;;
61960;SDS011;47923;42.506;24.192;2023-04-25T00:37:24;8.93;;;5.00;;
61960;SDS011;47923;42.506;24.192;2023-04-25T00:39:50;7.22;;;3.38;;
61960;SDS011;47923;42.506;24.192;2023-04-25T00:42:16;7.30;;;3.55;;
61960;SDS011;47923;42.506;24.192;2023-04-25T00:44:41;5.57;;;3.20;;
61960;SDS011;47923;42.506;24.192;2023-04-25T00:47:08;7.07;;;3.80;;
61960;SDS011;47923;42.506;24.192;2023-04-25T00:49:33;7.68;;;4.10;;
61960;SDS011;47923;42.506;24.192;2023-04-25T00:51:59;7.07;;;3.58;;
61960;SDS011;47923;42.506;24.192;2023-04-25T00:54:25;7.75;;;4.22;;
61960;SDS011;47923;42.506;24.192;2023-04-25T00:56:50;7.53;;;4.32;;
61960;SDS011;47923;42.506;24.192;2023-04-25T00:59:16;7.47;;;4.10;;
61960;SDS011;47923;42.506;24.192;2023-04-25T01:01:43;10.05;;;4.63;;
61960;SDS011;47923;42.506;24.192;2023-04-25T01:04:10;7.13;;;3.30;;
61960;SDS011;47923;42.506;24.192;2023-04-25T01:06:36;7.18;;;3.47;;
61960;SDS011;47923;42.506;24.192;2023-04-25T01:09:01;10.23;;;4.78;;
61960;SDS011;47923;42.506;24.192;2023-04-25T01:11:27;11.98;;;6.65;;
61960;SDS011;47923;42.506;24.192;2023-04-25T01:13:53;9.10;;;5.35;;
61960;SDS011;47923;42.506;24.192;2023-04-25T01:16:18;9.43;;;6.53;;
61960;SDS011;47923;42.506;24.192;2023-04-25T01:18:44;8.27;;;5.35;;
61960;SDS011;47923;42.506;24.192;2023-04-25T01:21:11;7.88;;;4.63;;
61960;SDS011;47923;42.506;24.192;2023-04-25T01:23:38;6.75;;;3.92;;
61960;SDS011;47923;42.506;24.192;2023-04-25T01:26:04;7.45;;;3.30;;
61960;SDS011;47923;42.506;24.192;2023-04-25T01:28:31;6.43;;;3.72;;
61960;SDS011;47923;42.506;24.192;2023-04-25T01:30:58;6.88;;;3.95;;
61960;SDS011;47923;42.506;24.192;2023-04-25T01:33:24;48.97;;;24.25;;
61960;SDS011;47923;42.506;24.192;2023-04-25T01:35:50;48.35;;;30.95;;
61960;SDS011;47923;42.506;24.192;2023-04-25T01:38:15;19.33;;;10.48;;
61960;SDS011;47923;42.506;24.192;2023-04-25T01:40:41;8.35;;;4.32;;
61960;SDS011;47923;42.506;24.192;2023-04-25T01:43:07;10.95;;;5.90;;
61960;SDS011;47923;42.506;24.192;2023-04-25T01:45:36;10.25;;;5.65;;
61960;SDS011;47923;42.506;24.192;2023-04-25T01:48:04;9.68;;;5.38;;
61960;SDS011;47923;42.506;24.192;2023-04-25T01:50:30;9.18;;;5.38;;
61960;SDS011;47923;42.506;24.192;2023-04-25T01:52:56;9.43;;;5.15;;
61960;SDS011;47923;42.506;24.192;2023-04-25T01:55:21;9.00;;;5.40;;
61960;SDS011;47923;42.506;24.192;2023-04-25T01:57:47;12.27;;;7.22;;
61960;SDS011;47923;42.506;24.192;2023-04-25T02:00:13;14.20;;;7.47;;
61960;SDS011;47923;42.506;24.192;2023-04-25T02:02:38;11.40;;;6.65;;
61960;SDS011;47923;42.506;24.192;2023-04-25T02:05:04;12.18;;;7.30;;
61960;SDS011;47923;42.506;24.192;2023-04-25T02:07:30;10.02;;;5.43;;
61960;SDS011;47923;42.506;24.192;2023-04-25T02:09:55;8.48;;;5.30;;
61960;SDS011;47923;42.506;24.192;2023-04-25T02:12:21;9.85;;;6.20;;
61960;SDS011;47923;42.506;24.192;2023-04-25T02:14:46;8.98;;;5.45;;
61960;SDS011;47923;42.506;24.192;2023-04-25T02:17:12;8.15;;;5.38;;
61960;SDS011;47923;42.506;24.192;2023-04-25T02:19:37;8.68;;;5.35;;
61960;SDS011;47923;42.506;24.192;2023-04-25T02:22:03;10.13;;;6.20;;
61960;SDS011;47923;42.506;24.192;2023-04-25T02:24:28;15.13;;;8.70;;
61960;SDS011;47923;42.506;24.192;2023-04-25T02:26:54;15.57;;;9.95;;
61960;SDS011;47923;42.506;24.192;2023-04-25T02:29:21;14.50;;;9.73;;
61960;SDS011;47923;42.506;24.192;2023-04-25T02:31:46;23.50;;;15.73;;
61960;SDS011;47923;42.506;24.192;2023-04-25T02:34:12;17.48;;;12.00;;
61960;SDS011;47923;42.506;24.192;2023-04-25T02:36:37;12.38;;;8.02;;
61960;SDS011;47923;42.506;24.192;2023-04-25T02:39:03;14.35;;;10.25;;
61960;SDS011;47923;42.506;24.192;2023-04-25T02:41:28;8.57;;;4.20;;
61960;SDS011;47923;42.506;24.192;2023-04-25T02:43:54;7.95;;;4.30;;
61960;SDS011;47923;42.506;24.192;2023-04-25T02:46:19;9.07;;;5.00;;
61960;SDS011;47923;42.506;24.192;2023-04-25T02:48:45;11.40;;;6.97;;
61960;SDS011;47923;42.506;24.192;2023-04-25T02:51:11;9.52;;;5.32;;
61960;SDS011;47923;42.506;24.192;2023-04-25T02:53:37;10.55;;;5.25;;
61960;SDS011;47923;42.506;24.192;2023-04-25T02:56:02;8.75;;;4.75;;
61960;SDS011;47923;42.506;24.192;2023-04-25T02:58:28;8.32;;;4.45;;
61960;SDS011;47923;42.506;24.192;2023-04-25T03:00:53;10.18;;;5.30;;
61960;SDS011;47923;42.506;24.192;2023-04-25T03:03:20;21.73;;;13.80;;
61960;SDS011;47923;42.506;24.192;2023-04-25T03:05:51;17.88;;;13.35;;
61960;SDS011;47923;42.506;24.192;2023-04-25T03:08:17;20.65;;;14.23;;
61960;SDS011;47923;42.506;24.192;2023-04-25T03:10:43;18.10;;;13.25;;
61960;SDS011;47923;42.506;24.192;2023-04-25T03:13:09;15.02;;;10.88;;
61960;SDS011;47923;42.506;24.192;2023-04-25T03:15:35;18.50;;;16.08;;
61960;SDS011;47923;42.506;24.192;2023-04-25T03:18:01;11.80;;;7.30;;
61960;SDS011;47923;42.506;24.192;2023-04-25T03:20:27;9.07;;;5.03;;
61960;SDS011;47923;42.506;24.192;2023-04-25T03:22:52;10.45;;;6.38;;
61960;SDS011;47923;42.506;24.192;2023-04-25T03:25:18;10.95;;;5.72;;
61960;SDS011;47923;42.506;24.192;2023-04-25T03:27:43;8.95;;;5.63;;
61960;SDS011;47923;42.506;24.192;2023-04-25T03:30:08;9.32;;;5.57;;
61960;SDS011;47923;42.506;24.192;2023-04-25T03:32:34;9.55;;;5.53;;
61960;SDS011;47923;42.506;24.192;2023-04-25T03:35:00;9.40;;;5.40;;
61960;SDS011;47923;42.506;24.192;2023-04-25T03:37:25;11.77;;;7.85;;
61960;SDS011;47923;42.506;24.192;2023-04-25T03:39:51;13.32;;;8.82;;
61960;SDS011;47923;42.506;24.192;2023-04-25T03:42:16;20.23;;;13.30;;
61960;SDS011;47923;42.506;24.192;2023-04-25T03:44:42;18.50;;;12.65;;
61960;SDS011;47923;42.506;24.192;2023-04-25T03:47:08;18.90;;;12.07;;
61960;SDS011;47923;42.506;24.192;2023-04-25T03:49:33;18.10;;;12.23;;
61960;SDS011;47923;42.506;24.192;2023-04-25T03:51:59;23.38;;;14.77;;
61960;SDS011;47923;42.506;24.192;2023-04-25T03:54:25;22.73;;;13.30;;
61960;SDS011;47923;42.506;24.192;2023-04-25T03:56:50;19.13;;;12.32;;
61960;SDS011;47923;42.506;24.192;2023-04-25T03:59:16;16.55;;;10.50;;
61960;SDS011;47923;42.506;24.192;2023-04-25T04:01:41;13.02;;;9.20;;
61960;SDS011;47923;42.506;24.192;2023-04-25T04:04:07;9.32;;;6.70;;
61960;SDS011;47923;42.506;24.192;2023-04-25T04:06:32;11.05;;;7.82;;
61960;SDS011;47923;42.506;24.192;2023-04-25T04:08:58;12.95;;;9.80;;
61960;SDS011;47923;42.506;24.192;2023-04-25T04:11:24;14.88;;;10.40;;
61960;SDS011;47923;42.506;24.192;2023-04-25T04:13:49;18.63;;;14.30;;
61960;SDS011;47923;42.506;24.192;2023-04-25T04:16:15;17.05;;;12.52;;
61960;SDS011;47923;42.506;24.192;2023-04-25T04:18:40;16.05;;;11.95;;
61960;SDS011;47923;42.506;24.192;2023-04-25T04:21:06;26.35;;;19.23;;
61960;SDS011;47923;42.506;24.192;2023-04-25T04:23:31;21.73;;;14.77;;
61960;SDS011;47923;42.506;24.192;2023-04-25T04:25:57;15.52;;;10.98;;
61960;SDS011;47923;42.506;24.192;2023-04-25T04:28:22;19.50;;;14.75;;
61960;SDS011;47923;42.506;24.192;2023-04-25T04:30:48;16.77;;;11.38;;
61960;SDS011;47923;42.506;24.192;2023-04-25T04:33:16;27.70;;;24.65;;
61960;SDS011;47923;42.506;24.192;2023-04-25T04:35:43;13.20;;;9.77;;
61960;SDS011;47923;42.506;24.192;2023-04-25T04:38:09;12.50;;;9.55;;
61960;SDS011;47923;42.506;24.192;2023-04-25T04:40:36;12.25;;;10.10;;
61960;SDS011;47923;42.506;24.192;2023-04-25T04:43:02;12.25;;;8.75;;
61960;SDS011;47923;42.506;24.192;2023-04-25T04:45:28;8.65;;;5.32;;
61960;SDS011;47923;42.506;24.192;2023-04-25T04:47:53;9.23;;;5.60;;
61960;SDS011;47923;42.506;24.192;2023-04-25T04:50:20;20.50;;;17.35;;
61960;SDS011;47923;42.506;24.192;2023-04-25T04:52:46;18.30;;;12.95;;
61960;SDS011;47923;42.506;24.192;2023-04-25T04:55:11;15.55;;;11.07;;
61960;SDS011;47923;42.506;24.192;2023-04-25T04:57:37;13.75;;;8.40;;
61960;SDS011;47923;42.506;24.192;2023-04-25T05:00:03;17.33;;;9.52;;
61960;SDS011;47923;42.506;24.192;2023-04-25T05:02:31;11.30;;;6.03;;
61960;SDS011;47923;42.506;24.192;2023-04-25T05:04:57;9.68;;;5.05;;
61960;SDS011;47923;42.506;24.192;2023-04-25T05:07:22;11.05;;;6.82;;
61960;SDS011;47923;42.506;24.192;2023-04-25T05:09:48;10.32;;;6.50;;
61960;SDS011;47923;42.506;24.192;2023-04-25T05:12:13;11.52;;;7.65;;
61960;SDS011;47923;42.506;24.192;2023-04-25T05:14:39;19.48;;;12.00;;
61960;SDS011;47923;42.506;24.192;2023-04-25T05:17:04;40.55;;;23.35;;
61960;SDS011;47923;42.506;24.192;2023-04-25T05:19:33;21.33;;;13.40;;
61960;SDS011;47923;42.506;24.192;2023-04-25T05:21:59;21.85;;;13.15;;
61960;SDS011;47923;42.506;24.192;2023-04-25T05:24:24;13.85;;;9.50;;
61960;SDS011;47923;42.506;24.192;2023-04-25T05:26:50;13.35;;;9.00;;
61960;SDS011;47923;42.506;24.192;2023-04-25T05:29:15;14.68;;;12.43;;
61960;SDS011;47923;42.506;24.192;2023-04-25T05:31:41;15.57;;;12.43;;
61960;SDS011;47923;42.506;24.192;2023-04-25T05:34:06;13.65;;;10.32;;
61960;SDS011;47923;42.506;24.192;2023-04-25T05:36:32;19.15;;;11.25;;
61960;SDS011;47923;42.506;24.192;2023-04-25T05:39:01;14.48;;;9.73;;
61960;SDS011;47923;42.506;24.192;2023-04-25T05:41:29;12.60;;;9.15;;
61960;SDS011;47923;42.506;24.192;2023-04-25T05:43:55;13.40;;;9.60;;
61960;SDS011;47923;42.506;24.192;2023-04-25T05:46:20;17.13;;;8.57;;
61960;SDS011;47923;42.506;24.192;2023-04-25T05:48:45;10.70;;;6.95;;
61960;SDS011;47923;42.506;24.192;2023-04-25T05:51:11;8.40;;;5.22;;
61960;SDS011;47923;42.506;24.192;2023-04-25T05:53:36;14.90;;;10.13;;
61960;SDS011;47923;42.506;24.192;2023-04-25T05:56:02;13.85;;;10.27;;
61960;SDS011;47923;42.506;24.192;2023-04-25T05:58:28;12.93;;;8.25;;
61960;SDS011;47923;42.506;24.192;2023-04-25T06:00:54;12.50;;;9.52;;
61960;SDS011;47923;42.506;24.192;2023-04-25T06:03:20;21.98;;;14.05;;
61960;SDS011;47923;42.506;24.192;2023-04-25T06:05:46;19.27;;;14.48;;
61960;SDS011;47923;42.506;24.192;2023-04-25T06:08:11;22.25;;;16.20;;
61960;SDS011;47923;42.506;24.192;2023-04-25T06:10:37;20.92;;;15.38;;
61960;SDS011;47923;42.506;24.192;2023-04-25T06:13:03;16.52;;;11.57;;
61960;SDS011;47923;42.506;24.192;2023-04-25T06:15:29;18.80;;;13.25;;
61960;SDS011;47923;42.506;24.192;2023-04-25T06:17:55;18.05;;;12.65;;
61960;SDS011;47923;42.506;24.192;2023-04-25T06:20:21;18.40;;;10.75;;
61960;SDS011;47923;42.506;24.192;2023-04-25T06:22:48;22.23;;;17.77;;
61960;SDS011;47923;42.506;24.192;2023-04-25T06:25:14;19.63;;;15.52;;
61960;SDS011;47923;42.506;24.192;2023-04-25T06:27:40;33.03;;;20.13;;
61960;SDS011;47923;42.506;24.192;2023-04-25T06:30:06;16.27;;;10.40;;
61960;SDS011;47923;42.506;24.192;2023-04-25T06:32:32;19.00;;;9.88;;
61960;SDS011;47923;42.506;24.192;2023-04-25T06:34:59;15.40;;;8.80;;
61960;SDS011;47923;42.506;24.192;2023-04-25T06:37:25;23.73;;;9.98;;
61960;SDS011;47923;42.506;24.192;2023-04-25T06:39:50;14.48;;;8.10;;
61960;SDS011;47923;42.506;24.192;2023-04-25T06:42:16;15.95;;;9.07;;
61960;SDS011;47923;42.506;24.192;2023-04-25T06:44:42;17.58;;;10.10;;
61960;SDS011;47923;42.506;24.192;2023-04-25T06:47:07;14.63;;;9.65;;
61960;SDS011;47923;42.506;24.192;2023-04-25T06:49:33;19.40;;;11.98;;
61960;SDS011;47923;42.506;24.192;2023-04-25T06:51:58;15.88;;;9.15;;
61960;SDS011;47923;42.506;24.192;2023-04-25T06:54:24;21.38;;;17.42;;
61960;SDS011;47923;42.506;24.192;2023-04-25T06:56:52;13.13;;;10.10;;
61960;SDS011;47923;42.506;24.192;2023-04-25T06:59:18;14.90;;;9.55;;
61960;SDS011;47923;42.506;24.192;2023-04-25T07:01:43;18.95;;;10.82;;
61960;SDS011;47923;42.506;24.192;2023-04-25T07:04:08;15.65;;;10.60;;
61960;SDS011;47923;42.506;24.192;2023-04-25T07:06:35;17.10;;;11.18;;
61960;SDS011;47923;42.506;24.192;2023-04-25T07:09:03;18.88;;;11.15;;
61960;SDS011;47923;42.506;24.192;2023-04-25T07:11:29;21.17;;;13.75;;
61960;SDS011;47923;42.506;24.192;2023-04-25T07:13:55;21.30;;;14.65;;
61960;SDS011;47923;42.506;24.192;2023-04-25T07:16:20;17.27;;;11.48;;
61960;SDS011;47923;42.506;24.192;2023-04-25T07:18:45;14.93;;;8.57;;
61960;SDS011;47923;42.506;24.192;2023-04-25T07:21:11;17.73;;;10.15;;
61960;SDS011;47923;42.506;24.192;2023-04-25T07:23:37;20.02;;;8.90;;
61960;SDS011;47923;42.506;24.192;2023-04-25T07:26:05;11.48;;;7.60;;
61960;SDS011;47923;42.506;24.192;2023-04-25T07:28:31;21.10;;;11.05;;
61960;SDS011;47923;42.506;24.192;2023-04-25T07:30:56;18.90;;;9.80;;
61960;SDS011;47923;42.506;24.192;2023-04-25T07:33:23;12.18;;;6.25;;
61960;SDS011;47923;42.506;24.192;2023-04-25T07:35:48;16.38;;;8.93;;
61960;SDS011;47923;42.506;24.192;2023-04-25T07:38:14;14.40;;;8.02;;
61960;SDS011;47923;42.506;24.192;2023-04-25T07:40:39;16.08;;;7.78;;
61960;SDS011;47923;42.506;24.192;2023-04-25T07:43:05;16.23;;;10.05;;
61960;SDS011;47923;42.506;24.192;2023-04-25T07:45:30;15.63;;;9.82;;
61960;SDS011;47923;42.506;24.192;2023-04-25T07:47:56;10.50;;;6.63;;
61960;SDS011;47923;42.506;24.192;2023-04-25T07:50:21;25.95;;;19.83;;
61960;SDS011;47923;42.506;24.192;2023-04-25T07:52:47;15.63;;;11.68;;
61960;SDS011;47923;42.506;24.192;2023-04-25T07:55:12;24.10;;;18.33;;
61960;SDS011;47923;42.506;24.192;2023-04-25T07:57:38;18.73;;;13.63;;
61960;SDS011;47923;42.506;24.192;2023-04-25T08:00:04;10.88;;;7.13;;
61960;SDS011;47923;42.506;24.192;2023-04-25T08:02:34;9.60;;;4.38;;
61960;SDS011;47923;42.506;24.192;2023-04-25T08:05:01;10.80;;;3.97;;
61960;SDS011;47923;42.506;24.192;2023-04-25T08:07:27;4.93;;;2.22;;
61960;SDS011;47923;42.506;24.192;2023-04-25T08:09:53;4.50;;;1.92;;
61960;SDS011;47923;42.506;24.192;2023-04-25T08:12:19;6.90;;;2.28;;
61960;SDS011;47923;42.506;24.192;2023-04-25T08:14:45;5.88;;;2.42;;
61960;SDS011;47923;42.506;24.192;2023-04-25T08:17:10;5.45;;;2.65;;
61960;SDS011;47923;42.506;24.192;2023-04-25T08:19:36;5.00;;;2.50;;
61960;SDS011;47923;42.506;24.192;2023-04-25T08:22:02;7.57;;;3.45;;
61960;SDS011;47923;42.506;24.192;2023-04-25T08:24:28;2.80;;;1.52;;
61960;SDS011;47923;42.506;24.192;2023-04-25T08:26:53;5.40;;;2.45;;
61960;SDS011;47923;42.506;24.192;2023-04-25T08:29:19;4.78;;;1.73;;
61960;SDS011;47923;42.506;24.192;2023-04-25T08:31:45;4.38;;;2.05;;
61960;SDS011;47923;42.506;24.192;2023-04-25T08:34:10;7.88;;;2.88;;
61960;SDS011;47923;42.506;24.192;2023-04-25T08:36:36;5.28;;;1.85;;
61960;SDS011;47923;42.506;24.192;2023-04-25T08:39:02;5.43;;;2.70;;
61960;SDS011;47923;42.506;24.192;2023-04-25T08:41:27;2.10;;;1.50;;
61960;SDS011;47923;42.506;24.192;2023-04-25T08:43:53;4.88;;;2.05;;
61960;SDS011;47923;42.506;24.192;2023-04-25T08:46:22;3.30;;;1.88;;
61960;SDS011;47923;42.506;24.192;2023-04-25T08:48:48;3.75;;;1.60;;
61960;SDS011;47923;42.506;24.192;2023-04-25T08:51:23;6.07;;;2.00;;
61960;SDS011;47923;42.506;24.192;2023-04-25T08:53:51;6.50;;;1.90;;
61960;SDS011;47923;42.506;24.192;2023-04-25T08:56:17;22.10;;;2.85;;
61960;SDS011;47923;42.506;24.192;2023-04-25T08:58:45;4.50;;;1.77;;
61960;SDS011;47923;42.506;24.192;2023-04-25T09:01:13;5.88;;;2.38;;
61960;SDS011;47923;42.506;24.192;2023-04-25T09:03:39;7.57;;;2.20;;
61960;SDS011;47923;42.506;24.192;2023-04-25T09:06:05;4.43;;;1.95;;
61960;SDS011;47923;42.506;24.192;2023-04-25T09:08:30;6.88;;;2.13;;
61960;SDS011;47923;42.506;24.192;2023-04-25T09:10:57;4.90;;;1.80;;
61960;SDS011;47923;42.506;24.192;2023-04-25T09:13:26;4.88;;;2.40;;
61960;SDS011;47923;42.506;24.192;2023-04-25T09:15:53;7.93;;;2.38;;
61960;SDS011;47923;42.506;24.192;2023-04-25T09:18:24;6.65;;;2.28;;
61960;SDS011;47923;42.506;24.192;2023-04-25T09:20:57;5.63;;;2.20;;
61960;SDS011;47923;42.506;24.192;2023-04-25T09:23:43;4.03;;;2.00;;
61960;SDS011;47923;42.506;24.192;2023-04-25T09:26:13;6.65;;;2.10;;
61960;SDS011;47923;42.506;24.192;2023-04-25T09:28:40;6.80;;;2.05;;
61960;SDS011;47923;42.506;24.192;2023-04-25T09:31:09;4.80;;;2.17;;
61960;SDS011;47923;42.506;24.192;2023-04-25T09:33:35;5.03;;;1.80;;
61960;SDS011;47923;42.506;24.192;2023-04-25T09:36:02;3.80;;;1.67;;
61960;SDS011;47923;42.506;24.192;2023-04-25T09:38:30;3.83;;;1.40;;
61960;SDS011;47923;42.506;24.192;2023-04-25T09:40:59;3.95;;;1.40;;
61960;SDS011;47923;42.506;24.192;2023-04-25T09:45:57;4.57;;;1.98;;
61960;SDS011;47923;42.506;24.192;2023-04-25T09:48:25;3.70;;;1.38;;
61960;SDS011;47923;42.506;24.192;2023-04-25T09:53:41;10.63;;;5.68;;
61960;SDS011;47923;42.506;24.192;2023-04-25T09:56:14;7.22;;;3.03;;
61960;SDS011;47923;42.506;24.192;2023-04-25T09:58:41;4.70;;;2.10;;
61960;SDS011;47923;42.506;24.192;2023-04-25T10:01:07;3.45;;;1.52;;
61960;SDS011;47923;42.506;24.192;2023-04-25T10:03:34;6.25;;;2.58;;
61960;SDS011;47923;42.506;24.192;2023-04-25T10:06:02;2.17;;;1.40;;
61960;SDS011;47923;42.506;24.192;2023-04-25T10:08:33;3.45;;;1.70;;
61960;SDS011;47923;42.506;24.192;2023-04-25T10:11:06;4.05;;;1.35;;
61960;SDS011;47923;42.506;24.192;2023-04-25T10:13:33;1.70;;;0.90;;
61960;SDS011;47923;42.506;24.192;2023-04-25T10:16:00;2.03;;;1.35;;
61960;SDS011;47923;42.506;24.192;2023-04-25T10:18:30;6.65;;;2.22;;
61960;SDS011;47923;42.506;24.192;2023-04-25T10:21:00;4.30;;;1.90;;
61960;SDS011;47923;42.506;24.192;2023-04-25T10:23:29;5.97;;;2.22;;
61960;SDS011;47923;42.506;24.192;2023-04-25T10:25:55;4.28;;;2.20;;
61960;SDS011;47923;42.506;24.192;2023-04-25T10:28:22;3.28;;;1.80;;
61960;SDS011;47923;42.506;24.192;2023-04-25T10:31:03;4.13;;;2.22;;
61960;SDS011;47923;42.506;24.192;2023-04-25T10:33:39;5.70;;;2.63;;
61960;SDS011;47923;42.506;24.192;2023-04-25T10:36:08;6.13;;;1.98;;
61960;SDS011;47923;42.506;24.192;2023-04-25T10:38:38;5.35;;;2.03;;
61960;SDS011;47923;42.506;24.192;2023-04-25T10:41:05;6.85;;;2.80;;
61960;SDS011;47923;42.506;24.192;2023-04-25T10:46:01;4.95;;;1.67;;
61960;SDS011;47923;42.506;24.192;2023-04-25T10:48:27;4.50;;;1.60;;
61960;SDS011;47923;42.506;24.192;2023-04-25T10:51:11;3.95;;;1.90;;
61960;SDS011;47923;42.506;24.192;2023-04-25T10:53:40;1.90;;;1.25;;
61960;SDS011;47923;42.506;24.192;2023-04-25T10:56:09;3.40;;;1.38;;
61960;SDS011;47923;42.506;24.192;2023-04-25T10:58:42;1.95;;;1.58;;
61960;SDS011;47923;42.506;24.192;2023-04-25T11:01:12;3.85;;;2.20;;
61960;SDS011;47923;42.506;24.192;2023-04-25T11:03:42;4.32;;;1.80;;
61960;SDS011;47923;42.506;24.192;2023-04-25T11:06:17;2.88;;;1.98;;
61960;SDS011;47923;42.506;24.192;2023-04-25T11:08:52;8.90;;;2.53;;
61960;SDS011;47923;42.506;24.192;2023-04-25T11:11:17;2.05;;;1.38;;
61960;SDS011;47923;42.506;24.192;2023-04-25T11:13:43;3.85;;;1.52;;
61960;SDS011;47923;42.506;24.192;2023-04-25T11:16:13;4.05;;;1.90;;
61960;SDS011;47923;42.506;24.192;2023-04-25T11:18:40;3.47;;;1.60;;
61960;SDS011;47923;42.506;24.192;2023-04-25T11:21:06;2.33;;;1.40;;
61960;SDS011;47923;42.506;24.192;2023-04-25T11:23:32;3.88;;;1.90;;
61960;SDS011;47923;42.506;24.192;2023-04-25T11:25:58;4.05;;;1.30;;
61960;SDS011;47923;42.506;24.192;2023-04-25T11:28:26;2.30;;;1.40;;
61960;SDS011;47923;42.506;24.192;2023-04-25T11:30:51;3.53;;;1.60;;
61960;SDS011;47923;42.506;24.192;2023-04-25T11:33:17;3.03;;;1.73;;
61960;SDS011;47923;42.506;24.192;2023-04-25T11:35:43;5.82;;;2.28;;
61960;SDS011;47923;42.506;24.192;2023-04-25T11:38:09;5.97;;;2.50;;
61960;SDS011;47923;42.506;24.192;2023-04-25T11:40:35;9.20;;;2.50;;
61960;SDS011;47923;42.506;24.192;2023-04-25T11:43:01;3.40;;;2.00;;
61960;SDS011;47923;42.506;24.192;2023-04-25T11:45:26;4.43;;;2.28;;
61960;SDS011;47923;42.506;24.192;2023-04-25T11:47:54;4.75;;;2.47;;
61960;SDS011;47923;42.506;24.192;2023-04-25T11:50:19;3.88;;;2.03;;
61960;SDS011;47923;42.506;24.192;2023-04-25T11:52:46;4.80;;;1.67;;
61960;SDS011;47923;42.506;24.192;2023-04-25T11:55:16;3.17;;;1.80;;
61960;SDS011;47923;42.506;24.192;2023-04-25T11:57:43;1.63;;;1.42;;
61960;SDS011;47923;42.506;24.192;2023-04-25T12:02:42;4.38;;;1.65;;
61960;SDS011;47923;42.506;24.192;2023-04-25T12:05:10;4.03;;;1.48;;
61960;SDS011;47923;42.506;24.192;2023-04-25T12:07:36;3.65;;;1.33;;
61960;SDS011;47923;42.506;24.192;2023-04-25T12:10:13;1.80;;;0.90;;
61960;SDS011;47923;42.506;24.192;2023-04-25T12:12:43;4.35;;;1.20;;
61960;SDS011;47923;42.506;24.192;2023-04-25T12:15:26;4.75;;;1.75;;
61960;SDS011;47923;42.506;24.192;2023-04-25T12:17:52;3.90;;;1.83;;
61960;SDS011;47923;42.506;24.192;2023-04-25T12:20:21;1.70;;;1.10;;
61960;SDS011;47923;42.506;24.192;2023-04-25T12:22:50;2.03;;;1.02;;
61960;SDS011;47923;42.506;24.192;2023-04-25T12:28:15;2.95;;;1.52;;
61960;SDS011;47923;42.506;24.192;2023-04-25T12:33:24;4.35;;;1.50;;
61960;SDS011;47923;42.506;24.192;2023-04-25T12:35:51;5.00;;;1.65;;
61960;SDS011;47923;42.506;24.192;2023-04-25T12:38:28;3.85;;;1.45;;
61960;SDS011;47923;42.506;24.192;2023-04-25T12:40:55;2.88;;;1.60;;
61960;SDS011;47923;42.506;24.192;2023-04-25T12:43:22;2.35;;;1.27;;
61960;SDS011;47923;42.506;24.192;2023-04-25T12:45:50;2.75;;;1.52;;
61960;SDS011;47923;42.506;24.192;2023-04-25T12:48:18;4.75;;;1.75;;
61960;SDS011;47923;42.506;24.192;2023-04-25T12:50:44;2.35;;;1.33;;
61960;SDS011;47923;42.506;24.192;2023-04-25T12:53:10;4.70;;;1.98;;
61960;SDS011;47923;42.506;24.192;2023-04-25T12:55:36;2.35;;;1.40;;
61960;SDS011;47923;42.506;24.192;2023-04-25T12:58:02;7.43;;;2.67;;
61960;SDS011;47923;42.506;24.192;2023-04-25T13:00:28;4.78;;;1.70;;
61960;SDS011;47923;42.506;24.192;2023-04-25T13:02:54;6.40;;;1.80;;
61960;SDS011;47923;42.506;24.192;2023-04-25T13:05:20;2.65;;;1.60;;
61960;SDS011;47923;42.506;24.192;2023-04-25T13:07:46;6.47;;;1.77;;
61960;SDS011;47923;42.506;24.192;2023-04-25T13:10:11;4.22;;;1.50;;
61960;SDS011;47923;42.506;24.192;2023-04-25T13:12:37;3.03;;;1.70;;
61960;SDS011;47923;42.506;24.192;2023-04-25T13:15:02;3.92;;;2.00;;
61960;SDS011;47923;42.506;24.192;2023-04-25T13:17:28;10.75;;;2.72;;
61960;SDS011;47923;42.506;24.192;2023-04-25T13:19:54;4.90;;;1.80;;
61960;SDS011;47923;42.506;24.192;2023-04-25T13:22:19;8.32;;;2.30;;
61960;SDS011;47923;42.506;24.192;2023-04-25T13:24:45;5.07;;;1.90;;
61960;SDS011;47923;42.506;24.192;2023-04-25T13:27:11;3.75;;;2.35;;
61960;SDS011;47923;42.506;24.192;2023-04-25T13:29:38;5.93;;;3.53;;
61960;SDS011;47923;42.506;24.192;2023-04-25T13:32:05;8.00;;;3.25;;
61960;SDS011;47923;42.506;24.192;2023-04-25T13:34:31;7.72;;;3.55;;
61960;SDS011;47923;42.506;24.192;2023-04-25T13:36:57;6.53;;;2.47;;
61960;SDS011;47923;42.506;24.192;2023-04-25T13:39:22;6.03;;;2.83;;
61960;SDS011;47923;42.506;24.192;2023-04-25T13:41:48;7.72;;;3.17;;
61960;SDS011;47923;42.506;24.192;2023-04-25T13:44:13;6.95;;;3.17;;
61960;SDS011;47923;42.506;24.192;2023-04-25T13:46:39;11.05;;;3.75;;
61960;SDS011;47923;42.506;24.192;2023-04-25T13:49:04;5.30;;;2.20;;
61960;SDS011;47923;42.506;24.192;2023-04-25T13:51:30;5.43;;;2.15;;
61960;SDS011;47923;42.506;24.192;2023-04-25T13:53:56;5.53;;;2.53;;
61960;SDS011;47923;42.506;24.192;2023-04-25T13:56:22;7.57;;;2.70;;
61960;SDS011;47923;42.506;24.192;2023-04-25T13:58:48;6.65;;;2.28;;
61960;SDS011;47923;42.506;24.192;2023-04-25T14:01:15;7.68;;;3.60;;
61960;SDS011;47923;42.506;24.192;2023-04-25T14:03:41;9.98;;;2.70;;
61960;SDS011;47923;42.506;24.192;2023-04-25T14:06:07;14.80;;;6.13;;
61960;SDS011;47923;42.506;24.192;2023-04-25T14:08:33;6.85;;;3.88;;
61960;SDS011;47923;42.506;24.192;2023-04-25T14:10:59;4.82;;;2.10;;
61960;SDS011;47923;42.506;24.192;2023-04-25T14:13:24;5.18;;;2.30;;
61960;SDS011;47923;42.506;24.192;2023-04-25T14:15:50;17.02;;;2.15;;
61960;SDS011;47923;42.506;24.192;2023-04-25T14:18:16;9.57;;;3.25;;
61960;SDS011;47923;42.506;24.192;2023-04-25T14:20:42;9.32;;;2.50;;
61960;SDS011;47923;42.506;24.192;2023-04-25T14:23:08;5.70;;;2.33;;
61960;SDS011;47923;42.506;24.192;2023-04-25T14:25:33;5.15;;;2.20;;
61960;SDS011;47923;42.506;24.192;2023-04-25T14:28:00;8.80;;;5.72;;
61960;SDS011;47923;42.506;24.192;2023-04-25T14:30:25;12.10;;;5.30;;
61960;SDS011;47923;42.506;24.192;2023-04-25T14:32:51;4.25;;;1.67;;
61960;SDS011;47923;42.506;24.192;2023-04-25T14:35:16;6.82;;;3.00;;
61960;SDS011;47923;42.506;24.192;2023-04-25T14:37:42;4.90;;;2.22;;